createdAt,value
2018-07-02T00:00:09.798Z,99.90
2018-07-02T00:02:38.373Z,99.90
2018-07-02T00:05:07.042Z,99.90
2018-07-02T00:07:35.637Z,99.90
2018-07-02T00:10:04.233Z,99.90
2018-07-02T00:12:32.845Z,99.90
2018-07-02T00:15:01.721Z,99.90
2018-07-02T00:17:30.546Z,99.90
2018-07-02T00:19:59.036Z,99.90
2018-07-02T00:22:27.555Z,99.90
2018-07-02T00:25:02.599Z,99.90
2018-07-02T00:27:31.147Z,99.90
2018-07-02T00:29:59.672Z,99.90
2018-07-02T00:32:28.222Z,99.90
2018-07-02T00:34:56.727Z,99.90
2018-07-02T00:37:25.240Z,99.90
2018-07-02T00:39:53.746Z,99.90
2018-07-02T00:42:22.275Z,99.90
2018-07-02T00:44:50.791Z,99.90
2018-07-02T00:47:19.355Z,99.90
2018-07-02T00:49:47.882Z,99.90
2018-07-02T00:52:16.426Z,99.90
2018-07-02T00:54:44.950Z,99.90
2018-07-02T00:57:13.519Z,99.90
2018-07-02T00:59:42.043Z,99.90
2018-07-02T01:02:10.654Z,99.90
2018-07-02T01:04:39.166Z,99.90
2018-07-02T01:07:08.752Z,99.90
2018-07-02T01:09:37.316Z,99.90
2018-07-02T01:12:06.063Z,99.90
2018-07-02T01:14:34.547Z,99.90
2018-07-02T01:19:31.317Z,99.90
2018-07-02T01:21:59.910Z,99.90
2018-07-02T01:24:28.419Z,99.90
2018-07-02T01:26:56.910Z,99.90
2018-07-02T01:29:25.442Z,99.90
2018-07-02T01:31:53.972Z,99.90
2018-07-02T01:34:22.515Z,99.90
2018-07-02T01:36:51.024Z,99.90
2018-07-02T01:39:19.573Z,99.90
2018-07-02T01:41:48.066Z,99.90
2018-07-02T01:44:16.561Z,99.90
2018-07-02T01:46:45.138Z,99.90
2018-07-02T01:49:13.650Z,99.90
2018-07-02T01:51:42.203Z,99.90
2018-07-02T01:54:10.838Z,99.90
2018-07-02T01:56:39.513Z,99.90
2018-07-02T01:59:07.999Z,99.90
2018-07-02T02:01:36.518Z,99.90
2018-07-02T02:04:05.067Z,99.90
2018-07-02T02:06:33.575Z,99.90
2018-07-02T02:09:02.135Z,99.90
2018-07-02T02:11:30.742Z,99.90
2018-07-02T02:13:59.244Z,99.90
2018-07-02T02:16:27.764Z,99.90
2018-07-02T02:18:56.321Z,99.90
2018-07-02T02:21:24.809Z,99.90
2018-07-02T02:23:53.320Z,99.90
2018-07-02T02:26:21.871Z,99.90
2018-07-02T02:28:50.434Z,99.90
2018-07-02T02:31:19.017Z,99.90
2018-07-02T02:33:47.635Z,99.90
2018-07-02T02:36:16.193Z,99.90
2018-07-02T02:38:44.691Z,99.90
2018-07-02T02:41:13.261Z,99.90
2018-07-02T02:43:41.766Z,99.90
2018-07-02T02:46:10.312Z,99.90
2018-07-02T02:48:39.098Z,99.90
2018-07-02T02:51:07.718Z,99.90
2018-07-02T02:53:36.239Z,99.90
2018-07-02T02:56:05.370Z,99.90
2018-07-02T02:58:33.893Z,99.90
2018-07-02T03:01:02.467Z,99.90
2018-07-02T03:03:31.063Z,99.90
2018-07-02T03:06:00.178Z,99.90
2018-07-02T03:08:28.744Z,99.90
2018-07-02T03:10:57.270Z,99.90
2018-07-02T03:13:25.762Z,99.90
2018-07-02T03:15:54.284Z,99.90
2018-07-02T03:18:22.886Z,99.90
2018-07-02T03:20:51.470Z,99.90
2018-07-02T03:23:20.043Z,99.90
2018-07-02T03:25:48.546Z,99.90
2018-07-02T03:28:17.066Z,99.90
2018-07-02T03:30:45.650Z,99.90
2018-07-02T03:33:14.166Z,99.90
2018-07-02T03:35:43.082Z,99.90
2018-07-02T03:38:11.622Z,99.90
2018-07-02T03:40:40.411Z,99.90
2018-07-02T03:43:08.990Z,99.90
2018-07-02T03:45:37.574Z,99.90
2018-07-02T03:48:06.154Z,99.90
2018-07-02T03:50:34.681Z,99.90
2018-07-02T03:53:03.218Z,99.90
2018-07-02T03:55:31.762Z,99.90
2018-07-02T03:58:00.254Z,99.90
2018-07-02T04:00:28.759Z,99.90
2018-07-02T04:02:57.326Z,99.90
2018-07-02T04:05:25.930Z,99.90
2018-07-02T04:07:54.568Z,99.90
2018-07-02T04:10:23.208Z,99.90
2018-07-02T04:12:51.823Z,99.90
2018-07-02T04:15:20.338Z,99.90
2018-07-02T04:17:48.826Z,99.90
2018-07-02T04:20:17.382Z,99.90
2018-07-02T04:22:45.954Z,99.90
2018-07-02T04:25:14.668Z,99.90
2018-07-02T04:27:43.162Z,99.90
2018-07-02T04:30:11.671Z,99.90
2018-07-02T04:32:40.844Z,99.90
2018-07-02T04:35:09.315Z,99.90
2018-07-02T04:37:37.836Z,99.90
2018-07-02T04:40:06.357Z,99.90
2018-07-02T04:42:34.862Z,99.90
2018-07-02T04:45:03.448Z,99.90
2018-07-02T04:47:31.974Z,99.90
2018-07-02T04:50:00.458Z,99.90
2018-07-02T04:52:29.049Z,99.90
2018-07-02T04:54:57.553Z,99.90
2018-07-02T04:57:26.081Z,99.90
2018-07-02T04:59:54.690Z,99.90
2018-07-02T05:02:23.170Z,99.90
2018-07-02T05:04:51.708Z,99.90
2018-07-02T05:07:20.258Z,99.90
2018-07-02T05:09:48.726Z,99.90
2018-07-02T05:12:17.227Z,99.90
2018-07-02T05:14:45.707Z,99.90
2018-07-02T05:17:14.183Z,99.90
2018-07-02T05:19:42.699Z,99.90
2018-07-02T05:22:11.214Z,99.90
2018-07-02T05:24:39.710Z,99.90
2018-07-02T05:27:08.228Z,99.90
2018-07-02T05:29:36.806Z,99.90
2018-07-02T05:32:05.322Z,99.90
2018-07-02T05:34:33.846Z,99.90
2018-07-02T05:37:02.391Z,99.80
2018-07-02T05:39:30.897Z,99.60
2018-07-02T05:41:59.378Z,99.50
2018-07-02T05:44:27.872Z,98.60
2018-07-02T05:46:56.430Z,98.30
2018-07-02T05:49:24.946Z,98.40
2018-07-02T05:51:53.509Z,98.10
2018-07-02T05:54:22.024Z,97.30
2018-07-02T05:56:50.498Z,97.00
2018-07-02T05:59:18.998Z,97.30
2018-07-02T06:01:47.543Z,96.70
2018-07-02T06:04:16.110Z,96.20
2018-07-02T06:06:44.680Z,96.00
2018-07-02T06:09:13.721Z,95.20
2018-07-02T06:11:42.351Z,94.70
2018-07-02T06:14:11.585Z,94.10
2018-07-02T06:16:40.283Z,94.30
2018-07-02T06:19:09.327Z,93.60
2018-07-02T06:21:37.834Z,94.10
2018-07-02T06:24:06.362Z,93.70
2018-07-02T06:29:03.044Z,93.00
2018-07-02T06:31:31.579Z,93.10
2018-07-02T06:34:00.120Z,92.90
2018-07-02T06:39:23.592Z,90.40
2018-07-02T06:41:52.075Z,90.10
2018-07-02T06:44:20.550Z,90.30
2018-07-02T06:46:49.028Z,90.60
2018-07-02T06:49:17.535Z,90.50
2018-07-02T06:51:46.023Z,90.20
2018-07-02T06:54:14.762Z,89.70
2018-07-02T06:56:43.270Z,89.90
2018-07-02T06:59:11.734Z,88.50
2018-07-02T07:01:40.232Z,85.00
2018-07-02T07:04:08.694Z,85.00
2018-07-02T07:06:37.302Z,84.40
2018-07-02T07:09:07.810Z,85.40
2018-07-02T07:11:36.334Z,85.60
2018-07-02T07:14:04.886Z,85.30
2018-07-02T07:16:33.458Z,82.60
2018-07-02T07:19:02.091Z,84.60
2018-07-02T07:21:30.690Z,83.00
2018-07-02T07:23:59.374Z,81.80
2018-07-02T07:26:27.891Z,81.90
2018-07-02T07:28:56.422Z,81.40
2018-07-02T07:31:24.966Z,79.30
2018-07-02T07:33:53.437Z,79.90
2018-07-02T07:36:21.937Z,80.50
2018-07-02T07:38:50.429Z,80.60
2018-07-02T07:41:18.971Z,82.40
2018-07-02T07:43:47.447Z,82.30
2018-07-02T07:46:15.923Z,82.30
2018-07-02T07:48:44.421Z,80.00
2018-07-02T07:51:12.997Z,78.60
2018-07-02T07:53:41.572Z,78.00
2018-07-02T07:56:10.065Z,75.50
2018-07-02T07:58:38.547Z,77.40
2018-07-02T08:01:11.975Z,77.70
2018-07-02T08:03:40.543Z,78.30
2018-07-02T08:06:09.100Z,78.80
2018-07-02T08:08:37.678Z,79.90
2018-07-02T08:11:06.334Z,79.00
2018-07-02T08:13:34.877Z,77.20
2018-07-02T08:16:03.366Z,76.70
2018-07-02T08:18:31.949Z,76.60
2018-07-02T08:21:00.545Z,75.40
2018-07-02T08:23:29.081Z,75.40
2018-07-02T08:25:57.637Z,73.60
2018-07-02T08:28:26.086Z,73.00
2018-07-02T08:30:54.581Z,71.50
2018-07-02T08:33:23.046Z,68.10
2018-07-02T08:35:51.553Z,68.10
2018-07-02T08:38:20.009Z,68.00
2018-07-02T08:40:48.505Z,67.30
2018-07-02T08:43:17.001Z,66.90
2018-07-02T08:45:45.483Z,66.70
2018-07-02T08:48:13.987Z,67.30
2018-07-02T08:50:42.497Z,67.40
2018-07-02T08:53:10.976Z,68.50
2018-07-02T08:55:39.521Z,68.20
2018-07-02T08:58:07.966Z,65.70
2018-07-02T09:00:36.467Z,62.60
2018-07-02T09:03:05.289Z,64.30
2018-07-02T09:05:33.833Z,66.40
2018-07-02T09:08:02.591Z,64.80
2018-07-02T09:10:31.149Z,67.30
2018-07-02T09:12:59.650Z,64.40
2018-07-02T09:15:28.149Z,61.90
2018-07-02T09:17:56.621Z,62.10
2018-07-02T09:20:25.263Z,62.80
2018-07-02T09:22:53.780Z,64.60
2018-07-02T09:25:22.322Z,61.30
2018-07-02T09:27:50.800Z,59.90
2018-07-02T09:30:19.278Z,59.80
2018-07-02T09:32:47.765Z,58.50
2018-07-02T09:35:16.413Z,57.60
2018-07-02T09:37:44.935Z,57.10
2018-07-02T09:40:14.421Z,59.20
2018-07-02T09:42:42.884Z,59.30
2018-07-02T09:45:12.321Z,61.60
2018-07-02T09:47:40.920Z,58.40
2018-07-02T09:50:09.729Z,60.40
2018-07-02T09:52:39.147Z,59.20
2018-07-02T09:55:07.709Z,57.60
2018-07-02T09:57:36.305Z,57.80
2018-07-02T10:00:05.501Z,58.00
2018-07-02T10:02:34.005Z,58.90
2018-07-02T10:05:02.527Z,58.00
2018-07-02T10:07:31.066Z,59.10
2018-07-02T10:09:59.553Z,56.80
2018-07-02T10:12:28.114Z,57.10
2018-07-02T10:14:56.588Z,57.90
2018-07-02T10:17:25.085Z,57.60
2018-07-02T10:19:53.626Z,59.10
2018-07-02T10:22:22.127Z,57.90
2018-07-02T10:24:50.662Z,59.10
2018-07-02T10:27:19.201Z,59.30
2018-07-02T10:29:47.875Z,57.80
2018-07-02T10:32:16.431Z,59.20
2018-07-02T10:34:44.952Z,57.70
2018-07-02T10:37:13.573Z,58.50
2018-07-02T10:39:42.423Z,59.30
2018-07-02T10:42:10.961Z,57.90
2018-07-02T10:44:39.433Z,60.60
2018-07-02T10:47:07.951Z,59.30
2018-07-02T10:49:36.490Z,58.80
2018-07-02T10:52:05.093Z,58.20
2018-07-02T10:54:33.625Z,58.40
2018-07-02T10:57:02.170Z,59.00
2018-07-02T10:59:33.405Z,58.50
2018-07-02T11:02:01.914Z,60.00
2018-07-02T11:04:31.076Z,57.50
2018-07-02T11:06:59.589Z,58.60
2018-07-02T11:09:28.123Z,59.00
2018-07-02T11:11:56.604Z,62.10
2018-07-02T11:14:25.149Z,58.40
2018-07-02T11:16:53.605Z,58.10
2018-07-02T11:19:22.104Z,56.90
2018-07-02T11:21:50.622Z,58.20
2018-07-02T11:24:19.172Z,58.10
2018-07-02T11:26:47.673Z,59.10
2018-07-02T11:29:16.201Z,60.30
2018-07-02T11:34:12.893Z,58.40
2018-07-02T11:36:41.359Z,59.60
2018-07-02T11:39:10.954Z,57.00
2018-07-02T11:41:39.755Z,54.70
2018-07-02T11:44:08.398Z,55.80
2018-07-02T11:46:36.914Z,57.90
2018-07-02T11:49:05.542Z,57.90
2018-07-02T11:51:34.065Z,57.80
2018-07-02T11:54:02.578Z,57.30
2018-07-02T11:56:31.251Z,57.10
2018-07-02T11:59:00.627Z,56.20
2018-07-02T12:01:29.133Z,56.30
2018-07-02T12:03:57.680Z,57.70
2018-07-02T12:06:26.267Z,57.10
2018-07-02T12:08:54.753Z,56.50
2018-07-02T12:11:23.358Z,58.70
2018-07-02T12:13:51.849Z,58.00
2018-07-02T12:16:20.406Z,59.60
2018-07-02T12:18:49.510Z,60.00
2018-07-02T12:21:18.043Z,58.90
2018-07-02T12:23:46.528Z,56.70
2018-07-02T12:26:15.213Z,55.90
2018-07-02T12:28:43.674Z,56.30
2018-07-02T12:31:12.171Z,54.90
2018-07-02T12:33:40.669Z,55.00
2018-07-02T12:36:09.204Z,57.40
2018-07-02T12:38:37.706Z,55.70
2018-07-02T12:41:06.634Z,56.60
2018-07-02T12:43:35.057Z,55.10
2018-07-02T12:46:03.585Z,54.90
2018-07-02T12:48:32.119Z,53.40
2018-07-02T12:51:00.658Z,53.50
2018-07-02T12:53:29.308Z,55.40
2018-07-02T12:55:57.785Z,53.90
2018-07-02T12:58:26.257Z,53.80
2018-07-02T13:00:54.794Z,55.10
2018-07-02T13:03:23.458Z,53.70
2018-07-02T13:05:51.927Z,55.10
2018-07-02T13:08:20.485Z,53.40
2018-07-02T13:10:49.145Z,54.50
2018-07-02T13:13:18.274Z,54.20
2018-07-02T13:18:15.006Z,54.90
2018-07-02T13:20:43.587Z,54.60
2018-07-02T13:23:12.049Z,53.50
2018-07-02T13:25:40.528Z,52.60
2018-07-02T13:28:09.049Z,56.20
2018-07-02T13:30:37.710Z,54.20
2018-07-02T13:33:06.246Z,54.00
2018-07-02T13:35:34.770Z,55.00
2018-07-02T13:38:03.322Z,55.30
2018-07-02T13:40:32.373Z,53.80
2018-07-02T13:43:00.930Z,54.10
2018-07-02T14:05:40.365Z,52.80
2018-07-02T14:08:08.841Z,53.50
2018-07-02T14:10:37.313Z,51.60
2018-07-02T14:13:05.850Z,51.90
2018-07-02T14:15:34.489Z,52.90
2018-07-02T14:18:03.538Z,53.80
2018-07-02T14:20:32.052Z,54.20
2018-07-02T14:23:00.533Z,54.10
2018-07-02T14:25:29.050Z,54.30
2018-07-02T14:27:57.758Z,54.10
2018-07-02T14:30:26.270Z,53.70
2018-07-02T14:32:54.902Z,52.80
2018-07-02T14:35:23.414Z,53.40
2018-07-02T14:37:51.922Z,55.30
2018-07-02T14:40:20.450Z,52.10
2018-07-02T14:42:48.917Z,52.80
2018-07-02T14:45:17.592Z,54.20
2018-07-02T14:47:46.753Z,54.20
2018-07-02T14:50:15.237Z,52.80
2018-07-02T14:52:43.766Z,54.60
2018-07-02T14:55:12.318Z,52.50
2018-07-02T14:57:40.810Z,55.30
2018-07-02T15:00:09.336Z,54.90
2018-07-02T15:02:37.841Z,55.30
2018-07-02T15:05:06.633Z,54.30
2018-07-02T15:07:35.095Z,53.50
2018-07-02T15:10:03.686Z,52.70
2018-07-02T15:12:32.162Z,52.90
2018-07-02T15:15:00.659Z,52.10
2018-07-02T15:17:29.105Z,53.40
2018-07-02T15:19:57.594Z,53.10
2018-07-02T15:22:26.109Z,52.80
2018-07-02T15:24:54.611Z,53.90
2018-07-02T15:27:23.438Z,54.10
2018-07-02T15:29:52.038Z,54.60
2018-07-02T15:32:20.620Z,55.00
2018-07-02T15:34:49.122Z,53.60
2018-07-02T15:37:17.641Z,53.30
2018-07-02T15:39:46.205Z,53.30
2018-07-02T15:42:14.686Z,55.20
2018-07-02T15:44:43.151Z,55.20
2018-07-02T15:47:11.680Z,54.80
2018-07-02T15:49:40.244Z,55.30
2018-07-02T15:52:08.846Z,53.80
2018-07-02T15:54:37.349Z,54.60
2018-07-02T15:57:05.954Z,55.70
2018-07-02T15:59:34.537Z,55.30
2018-07-02T16:02:03.058Z,55.10
2018-07-02T16:04:31.742Z,54.60
2018-07-02T16:07:00.258Z,55.10
2018-07-02T16:09:28.999Z,54.40
2018-07-02T16:11:57.256Z,54.90
2018-07-02T16:14:25.870Z,56.50
2018-07-02T16:16:54.366Z,55.20
2018-07-02T16:19:22.858Z,55.10
2018-07-02T16:21:51.349Z,55.90
2018-07-02T16:24:20.159Z,56.20
2018-07-02T16:29:17.975Z,55.60
2018-07-02T16:31:46.502Z,55.70
2018-07-02T16:34:14.998Z,55.60
2018-07-02T16:36:43.493Z,56.10
2018-07-02T16:39:12.113Z,57.70
2018-07-02T16:41:40.612Z,58.80
2018-07-02T16:44:09.217Z,58.50
2018-07-02T16:46:37.721Z,58.80
2018-07-02T16:49:06.249Z,58.80
2018-07-02T16:51:35.070Z,59.10
2018-07-02T16:54:04.154Z,59.50
2018-07-02T16:56:33.510Z,58.50
2018-07-02T16:59:02.093Z,58.90
2018-07-02T17:01:30.605Z,59.00
2018-07-02T17:03:59.158Z,58.80
2018-07-02T17:06:27.692Z,59.70
2018-07-02T17:08:56.169Z,58.80
2018-07-02T17:11:24.766Z,59.50
2018-07-02T17:13:53.372Z,59.80
2018-07-02T17:16:21.903Z,59.30
2018-07-02T17:18:50.602Z,60.40
2018-07-02T17:21:19.182Z,60.10
2018-07-02T17:23:47.770Z,60.00
2018-07-02T17:26:16.249Z,59.90
2018-07-02T17:28:44.861Z,59.60
2018-07-02T17:31:13.405Z,60.30
2018-07-02T17:33:42.106Z,60.90
2018-07-02T17:36:10.592Z,60.60
2018-07-02T17:38:39.112Z,61.40
2018-07-02T17:41:07.632Z,61.80
2018-07-02T17:43:36.161Z,61.60
2018-07-02T17:46:04.722Z,61.10
2018-07-02T17:48:33.297Z,62.20
2018-07-02T17:51:01.859Z,62.70
2018-07-02T17:53:30.427Z,63.00
2018-07-02T17:55:58.904Z,62.90
2018-07-02T17:58:27.413Z,63.10
2018-07-02T18:00:56.018Z,63.60
2018-07-02T18:03:24.690Z,64.80
2018-07-02T18:05:53.177Z,64.80
2018-07-02T18:08:21.662Z,65.10
2018-07-02T18:10:50.246Z,65.50
2018-07-02T18:13:18.799Z,65.00
2018-07-02T18:15:47.356Z,65.90
2018-07-02T18:18:15.850Z,66.80
2018-07-02T18:20:44.553Z,66.40
2018-07-02T18:23:13.069Z,66.50
2018-07-02T18:25:41.723Z,67.10
2018-07-02T18:28:10.265Z,68.00
2018-07-02T18:30:38.821Z,67.90
2018-07-02T18:33:07.356Z,67.90
2018-07-02T18:35:35.958Z,67.90
2018-07-02T18:38:04.545Z,68.70
2018-07-02T18:43:01.476Z,69.90
2018-07-02T18:45:30.031Z,70.00
2018-07-02T18:47:58.602Z,70.80
2018-07-02T18:50:27.373Z,70.80
2018-07-02T18:52:55.985Z,71.40
2018-07-02T18:55:26.007Z,71.70
2018-07-02T18:57:54.714Z,72.00
2018-07-02T19:00:23.370Z,72.10
2018-07-02T19:02:52.018Z,72.60
2018-07-02T19:05:20.690Z,73.30
2018-07-02T19:07:49.203Z,73.10
2018-07-02T19:10:17.713Z,73.70
2018-07-02T19:12:46.275Z,74.10
2018-07-02T19:15:14.823Z,73.90
2018-07-02T19:17:43.341Z,73.90
2018-07-02T19:20:11.895Z,74.00
2018-07-02T19:22:40.548Z,74.50
2018-07-02T19:25:09.592Z,74.70
2018-07-02T19:27:38.144Z,74.60
2018-07-02T19:30:06.741Z,75.20
2018-07-02T19:32:35.239Z,76.60
2018-07-02T19:35:03.879Z,77.50
2018-07-02T19:37:32.438Z,77.90
2018-07-02T19:40:01.140Z,79.00
2018-07-02T19:42:29.637Z,79.60
2018-07-02T19:44:58.133Z,79.70
2018-07-02T19:47:26.788Z,80.70
2018-07-02T19:49:57.464Z,81.60
2018-07-02T19:52:28.231Z,81.50
2018-07-02T19:55:03.333Z,82.10
2018-07-02T20:00:03.984Z,82.30
2018-07-02T20:02:33.219Z,83.40
2018-07-02T20:05:02.135Z,84.00
2018-07-02T20:07:30.678Z,85.00
2018-07-02T20:09:59.259Z,85.10
2018-07-02T20:12:28.508Z,85.70
2018-07-02T20:14:57.065Z,86.60
2018-07-02T20:17:25.658Z,87.10
2018-07-02T20:19:54.703Z,87.80
2018-07-02T20:22:23.531Z,88.70
2018-07-02T20:24:52.300Z,89.00
2018-07-02T20:27:21.220Z,89.80
2018-07-02T20:29:50.070Z,90.20
2018-07-02T20:32:18.622Z,90.20
2018-07-02T20:34:47.462Z,90.40
2018-07-02T20:37:16.093Z,91.00
2018-07-02T20:39:44.753Z,91.40
2018-07-02T20:42:13.302Z,91.90
2018-07-02T20:44:41.941Z,91.90
2018-07-02T20:47:10.470Z,92.30
2018-07-02T20:49:39.773Z,92.60
2018-07-02T20:52:11.574Z,92.80
2018-07-02T20:54:40.512Z,92.90
2018-07-02T20:57:10.802Z,92.80
2018-07-02T20:59:43.842Z,92.90
2018-07-02T21:02:12.608Z,93.20
2018-07-02T21:04:41.143Z,93.20
2018-07-02T21:10:41.945Z,93.70
2018-07-02T21:13:10.510Z,93.80
2018-07-02T21:15:39.451Z,93.90
2018-07-02T21:18:08.335Z,94.40
2018-07-02T21:20:37.655Z,94.20
2018-07-02T21:23:06.282Z,94.30
2018-07-02T21:25:34.982Z,94.60
2018-07-02T21:28:03.569Z,94.80
2018-07-02T21:30:32.161Z,95.10
2018-07-02T21:33:00.920Z,95.30
2018-07-02T21:35:29.462Z,95.50
2018-07-02T21:37:58.059Z,96.30
2018-07-02T21:40:41.644Z,95.90
2018-07-02T21:43:10.274Z,96.10
2018-07-02T21:45:38.818Z,95.90
2018-07-02T21:48:07.319Z,95.90
2018-07-02T21:50:35.849Z,95.90
2018-07-02T21:53:04.370Z,96.10
2018-07-02T21:55:32.968Z,96.10
2018-07-02T21:58:01.451Z,96.70
2018-07-02T22:00:33.007Z,97.00
2018-07-02T22:03:01.465Z,96.90
2018-07-02T22:05:29.949Z,97.30
2018-07-02T22:07:58.516Z,97.40
2018-07-02T22:10:27.066Z,97.50
2018-07-02T22:12:55.613Z,97.50
2018-07-02T22:15:24.419Z,97.70
2018-07-02T22:17:55.434Z,98.00
2018-07-02T22:20:25.135Z,98.00
2018-07-02T22:23:01.869Z,98.10
2018-07-02T22:25:31.621Z,98.30
2018-07-02T22:28:00.547Z,98.50
2018-07-02T22:30:30.016Z,98.60
2018-07-02T22:32:59.012Z,98.60
2018-07-02T22:35:27.846Z,98.80
2018-07-02T22:37:58.058Z,98.90
2018-07-02T22:40:27.501Z,99.00
2018-07-02T22:42:59.320Z,99.20
2018-07-02T22:45:28.373Z,99.10
2018-07-02T22:47:57.121Z,99.20
2018-07-02T22:50:26.382Z,99.30
2018-07-02T22:52:55.295Z,99.30
2018-07-02T22:55:24.206Z,99.40
2018-07-02T22:57:52.929Z,99.40
2018-07-02T23:00:22.973Z,99.60
2018-07-02T23:02:53.088Z,99.80
2018-07-02T23:05:22.031Z,99.80
2018-07-02T23:07:50.962Z,99.90
2018-07-02T23:10:20.309Z,99.90
2018-07-02T23:12:49.394Z,99.90
2018-07-02T23:15:19.216Z,99.90
2018-07-02T23:17:48.030Z,99.90
2018-07-02T23:20:17.277Z,99.90
2018-07-02T23:22:57.526Z,99.90
2018-07-02T23:25:27.353Z,99.90
2018-07-02T23:27:57.272Z,99.90
2018-07-02T23:30:26.898Z,99.90
2018-07-02T23:32:55.922Z,99.90
2018-07-02T23:35:24.887Z,99.90
2018-07-02T23:37:54.228Z,99.90
2018-07-02T23:40:24.552Z,99.90
2018-07-02T23:42:55.681Z,99.90
2018-07-02T23:45:25.170Z,99.90
2018-07-02T23:47:54.333Z,99.90
2018-07-02T23:50:24.259Z,99.90
2018-07-02T23:52:54.445Z,99.90
2018-07-02T23:55:23.489Z,99.90
2018-07-02T23:57:53.121Z,99.90
